Weather History for Bigfork, MN

Change the Weather History Date:

Wednesday, May 13, 2009

  Actual Average (KGPZ) Record (KGPZ)
Temperature  
Mean Temperature 63 °F -  
Max Temperature 71 °F 66 °F 89 °F (1977)
Min Temperature 55 °F 38 °F 18 °F (1953)
Degree Days  
Heating Degree Days 2    
Growing Degree Days 13 (Base 50)    
Moisture  
Dew Point 47 °F    
Average Humidity 64    
Maximum Humidity 94    
Minimum Humidity 28    
Precipitation  
Precipitation 0.04 in - - ()
Sea Level Pressure  
Sea Level Pressure 29.41 in    
Wind  
Wind Speed 17 mph (SW)    
Max Wind Speed 31 mph    
Max Gust Speed 39 mph    
Visibility 10 miles    
Events Rain , Thunderstorm    
Averages and records for this station are not official NWS values.
T = Trace of Precipitation, MM = Missing Value Source: NWS Daily Summary

Daily Weather History Graph

Daily Weather History Graph

Search for Another Location

Airport:

Trip Planner

Search our weather history database for the weather conditions in past years. The results will help you decide how hot, cold, wet, or windy it might be!

Date:

Astronomy

May. 13, 2009 Rise Set
Actual Time 5:38 AM CDT 8:43 PM CDT
Civil Twilight 5:02 AM CDT 9:20 PM CDT
Nautical Twilight 4:15 AM CDT 10:08 PM CDT
Astronomical Twilight 3:16 AM CDT 11:07 PM CDT
Moon 12:32 AM CDT (5/13) 8:40 AM CDT (5/13)
Length of Visible Light 16h 18m
Length of Day
15h 04m
Waning Gibbous, 82% of the Moon is Illuminated
May 13
Waning Gibbous
May 17
Last Quarter
May 24
New
May 30
First Quarter
Jun 7
Full

Hourly Weather History & Observations

Time (CDT) Temp. Windchill Dew Point Humidity Pressure Visibility Wind Dir Wind Speed Gust Speed Precip Events Conditions
12:14 AM 59.0 °F - 50.0 °F 72% 29.54 in 10.0 mi South 13.8 mph 18.4 mph N/A   Overcast
12:33 AM 57.2 °F - 51.8 °F 82% 29.54 in 10.0 mi South 15.0 mph 24.2 mph N/A Rain Rain
12:53 AM 57.2 °F - 51.8 °F 82% 29.54 in 10.0 mi South 13.8 mph 18.4 mph N/A Rain Light Rain
1:13 AM 55.4 °F - 51.8 °F 88% 29.52 in 7.0 mi South 16.1 mph 21.9 mph N/A Rain Light Rain
1:33 AM 55.4 °F - 53.6 °F 94% 29.49 in 5.0 mi SSE 15.0 mph 24.2 mph 0.01 in Rain Light Rain
1:53 AM 55.4 °F - 53.6 °F 94% 29.49 in 5.0 mi South 13.8 mph - N/A   Drizzle
2:13 AM 55.4 °F - 53.6 °F 94% 29.48 in 10.0 mi South 17.3 mph 24.2 mph N/A   Light Drizzle
2:33 AM 55.4 °F - 53.6 °F 94% 29.48 in 10.0 mi South 16.1 mph 26.5 mph N/A   Light Drizzle
2:53 AM 55.4 °F - 53.6 °F 94% 29.48 in 10.0 mi South 16.1 mph 25.3 mph N/A   Light Drizzle
3:13 AM 55.4 °F - 53.6 °F 94% 29.47 in 10.0 mi South 18.4 mph 26.5 mph N/A Rain Light Rain
3:33 AM 55.4 °F - 53.6 °F 94% 29.46 in 10.0 mi South 12.7 mph 24.2 mph N/A Rain Light Rain
3:54 AM 57.2 °F - 53.6 °F 88% 29.44 in 10.0 mi South 17.3 mph 26.5 mph N/A Rain Rain
4:13 AM 55.4 °F - 53.6 °F 94% 29.43 in 10.0 mi South 16.1 mph 24.2 mph N/A Rain Rain
4:33 AM 55.4 °F - 53.6 °F 94% 29.40 in 10.0 mi SSE 15.0 mph 21.9 mph 0.02 in Rain Rain
4:53 AM 55.4 °F - 53.6 °F 94% 29.37 in 10.0 mi SSE 12.7 mph 21.9 mph N/A Rain Light Rain
5:13 AM 55.4 °F - 53.6 °F 94% 29.39 in 10.0 mi South 16.1 mph 24.2 mph N/A   Overcast
5:33 AM 55.4 °F - 53.6 °F 94% 29.37 in 10.0 mi South 17.3 mph 28.8 mph N/A   Overcast
5:53 AM 55.4 °F - 53.6 °F 94% 29.37 in 10.0 mi South 16.1 mph 31.1 mph N/A   Overcast
6:33 AM 55.4 °F - 53.6 °F 94% 29.37 in 7.0 mi South 17.3 mph 28.8 mph 0.01 in Rain Light Rain
6:53 AM 55.4 °F - 53.6 °F 94% 29.37 in 10.0 mi SSW 18.4 mph 25.3 mph N/A Rain Light Rain
7:13 AM 55.4 °F - 53.6 °F 94% 29.37 in 10.0 mi South 17.3 mph 25.3 mph N/A   Overcast
7:33 AM 57.2 °F - 53.6 °F 88% 29.37 in 10.0 mi South 19.6 mph 25.3 mph N/A   Overcast
7:53 AM 57.2 °F - 55.4 °F 94% 29.37 in 10.0 mi South 19.6 mph 26.5 mph N/A   Overcast
8:13 AM 59.0 °F - 55.4 °F 88% 29.36 in 10.0 mi South 20.7 mph 29.9 mph N/A   Overcast
8:34 AM 57.2 °F - 51.8 °F 82% 29.39 in 10.0 mi SW 17.3 mph 26.5 mph N/A   Overcast
8:53 AM 57.2 °F - 48.2 °F 72% 29.39 in 10.0 mi SW 18.4 mph 26.5 mph N/A   Scattered Clouds
9:13 AM 57.2 °F - 46.4 °F 67% 29.39 in 10.0 mi WSW 18.4 mph 27.6 mph N/A   Scattered Clouds
9:33 AM 60.8 °F - 46.4 °F 59% 29.38 in 10.0 mi SW 16.1 mph 26.5 mph N/A   Clear
9:53 AM 60.8 °F - 46.4 °F 59% 29.38 in 10.0 mi WSW 15.0 mph 28.8 mph N/A   Clear
10:13 AM 62.6 °F - 46.4 °F 55% 29.38 in 10.0 mi SW 23.0 mph 27.6 mph N/A   Clear
10:33 AM 62.6 °F - 44.6 °F 52% 29.38 in 10.0 mi SW 25.3 mph 35.7 mph N/A   Clear
10:53 AM 64.4 °F - 44.6 °F 49% 29.38 in 10.0 mi SW 31.1 mph 34.5 mph N/A   Scattered Clouds
11:13 AM 64.4 °F - 44.6 °F 49% 29.38 in 10.0 mi WSW 27.6 mph 35.7 mph N/A   Scattered Clouds
11:33 AM 66.2 °F - 44.6 °F 46% 29.38 in 10.0 mi SW 20.7 mph 29.9 mph N/A   Clear
11:53 AM 66.2 °F - 44.6 °F 46% 29.38 in 10.0 mi SW 20.7 mph 33.4 mph N/A   Clear
12:13 PM 66.2 °F - 44.6 °F 46% 29.38 in 10.0 mi SW 21.9 mph 31.1 mph N/A   Clear
12:33 PM 68.0 °F - 41.0 °F 37% 29.37 in 10.0 mi WSW 21.9 mph 31.1 mph N/A   Clear
12:53 PM 69.8 °F - 42.8 °F 38% 29.37 in 10.0 mi SW 19.6 mph 29.9 mph N/A   Clear
1:13 PM 71.6 °F - 41.0 °F 33% 29.37 in 10.0 mi SW 29.9 mph 36.8 mph N/A   Scattered Clouds
1:33 PM 69.8 °F - 39.2 °F 33% 29.37 in 10.0 mi SW 31.1 mph 39.1 mph N/A   Scattered Clouds
1:53 PM 69.8 °F - 35.6 °F 28% 29.38 in 10.0 mi WSW 21.9 mph 35.7 mph N/A   Scattered Clouds
2:13 PM 69.8 °F - 37.4 °F 31% 29.38 in 10.0 mi West 19.6 mph 38.0 mph N/A   Scattered Clouds
2:33 PM 68.0 °F - 35.6 °F 30% 29.39 in 10.0 mi WSW 24.2 mph 34.5 mph N/A   Scattered Clouds
2:53 PM 68.0 °F - 41.0 °F 37% 29.39 in 10.0 mi West 16.1 mph 29.9 mph N/A   Scattered Clouds
3:13 PM 68.0 °F - 41.0 °F 37% 29.40 in 10.0 mi West 12.7 mph 27.6 mph N/A   Scattered Clouds
3:33 PM 66.2 °F - 39.2 °F 37% 29.40 in 10.0 mi West 19.6 mph 31.1 mph N/A   Scattered Clouds
3:53 PM 68.0 °F - 41.0 °F 37% 29.41 in 10.0 mi WSW 15.0 mph 26.5 mph N/A   Scattered Clouds
4:13 PM 68.0 °F - 41.0 °F 37% 29.41 in 10.0 mi WSW 17.3 mph 31.1 mph N/A   Scattered Clouds
4:33 PM 66.2 °F - 41.0 °F 40% 29.41 in 10.0 mi WSW 16.1 mph 28.8 mph N/A   Scattered Clouds
4:53 PM 68.0 °F - 37.4 °F 33% 29.42 in 10.0 mi WSW 21.9 mph 31.1 mph N/A   Scattered Clouds
5:13 PM 66.2 °F - 35.6 °F 32% 29.42 in 10.0 mi WSW 23.0 mph 34.5 mph N/A   Scattered Clouds
5:33 PM 64.4 °F - 35.6 °F 34% 29.42 in 10.0 mi SW 20.7 mph 31.1 mph N/A   Scattered Clouds
5:53 PM 64.4 °F - 33.8 °F 32% 29.43 in 10.0 mi WSW 16.1 mph 31.1 mph N/A   Scattered Clouds
6:13 PM 64.4 °F - 35.6 °F 34% 29.43 in 10.0 mi WSW 25.3 mph 33.4 mph N/A   Scattered Clouds
6:33 PM 62.6 °F - 37.4 °F 39% 29.43 in 10.0 mi West 10.4 mph 25.3 mph N/A Rain Light Rain
6:53 PM 59.0 °F - 44.6 °F 59% 29.45 in 10.0 mi WNW 9.2 mph 21.9 mph N/A Thunderstorm Thunderstorm
7:13 PM 55.4 °F - 46.4 °F 72% 29.45 in 10.0 mi WNW 9.2 mph - N/A Rain Light Rain
7:33 PM 57.2 °F - 46.4 °F 67% 29.46 in 10.0 mi West 6.9 mph - N/A   Scattered Clouds
7:53 PM 57.2 °F - 44.6 °F 63% 29.46 in 10.0 mi West 9.2 mph 16.1 mph N/A   Mostly Cloudy
8:13 PM 53.6 °F - 46.4 °F 77% 29.48 in 10.0 mi WSW 9.2 mph 18.4 mph N/A Rain , Thunderstorm Rain
8:33 PM 53.6 °F - 46.4 °F 77% 29.47 in 10.0 mi WSW 4.6 mph - N/A Rain Light Rain
8:53 PM 53.6 °F - 44.6 °F 72% 29.48 in 10.0 mi WNW 5.8 mph - N/A   Mostly Cloudy
9:13 PM 51.8 °F - 42.8 °F 71% 29.49 in 10.0 mi West 5.8 mph - N/A   Mostly Cloudy
9:33 PM 51.8 °F - 44.6 °F 76% 29.50 in 10.0 mi West 5.8 mph - N/A   Overcast
9:53 PM 51.8 °F - 42.8 °F 71% 29.51 in 10.0 mi West 8.1 mph - N/A   Overcast
10:13 PM 50.0 °F - 39.2 °F 66% 29.52 in 10.0 mi WNW 10.4 mph 23.0 mph N/A   Overcast
10:33 PM 48.2 °F - 39.2 °F 71% 29.52 in 10.0 mi WNW 6.9 mph 16.1 mph N/A   Overcast
10:53 PM 44.6 °F 38.4 °F 39.2 °F 81% 29.53 in 10.0 mi WNW 12.7 mph 19.6 mph N/A Rain Rain
11:13 PM 42.8 °F 37.0 °F 37.4 °F 81% 29.55 in 10.0 mi NW 10.4 mph 18.4 mph 0.02 in Rain Heavy Rain
11:33 PM 37.4 °F 30.3 °F 35.6 °F 93% 29.57 in 10.0 mi WNW 10.4 mph 25.3 mph 0.05 in Rain Rain
11:53 PM 33.8 °F 28.6 °F 32.0 °F 93% 29.59 in 1.2 mi WNW 5.8 mph 17.3 mph 0.02 in Snow Light Snow